National Weather Service Raw Text Product

Displaying AFOS PIL: TAFDSM Received: 2018-01-03 17:26 UTC


747 
FTUS43 KDMX 031726 AAA
TAFDSM
TAF AMD
KDSM 031726Z 0317/0412 33013G19KT P6SM SKC
     FM040000 32008KT P6SM FEW250
     FM040800 32005KT P6SM FEW250=